createdAt,value
2023-04-17T00:01:51.562Z,9.90
2023-04-17T00:04:22.429Z,9.90
2023-04-17T00:06:50.271Z,9.80
2023-04-17T00:09:17.579Z,9.90
2023-04-17T00:11:44.599Z,9.90
2023-04-17T00:14:11.874Z,9.80
2023-04-17T00:16:38.882Z,9.80
2023-04-17T00:19:05.852Z,9.80
2023-04-17T00:21:32.946Z,9.80
2023-04-17T00:23:59.868Z,9.80
2023-04-17T00:26:26.667Z,9.70
2023-04-17T00:28:53.587Z,9.70
2023-04-17T00:31:21.048Z,9.70
2023-04-17T00:33:48.396Z,9.80
2023-04-17T00:36:15.626Z,9.80
2023-04-17T00:38:42.422Z,9.80
2023-04-17T00:41:11.516Z,9.80
2023-04-17T00:43:39.711Z,9.80
2023-04-17T00:46:06.846Z,9.80
2023-04-17T00:48:34.561Z,9.80
2023-04-17T00:51:03.430Z,9.90
2023-04-17T00:53:34.032Z,9.80
2023-04-17T00:56:00.940Z,9.80
2023-04-17T00:58:28.280Z,9.80
2023-04-17T01:00:56.080Z,9.80
2023-04-17T01:03:23.344Z,9.80
2023-04-17T01:05:51.722Z,9.70
2023-04-17T01:08:19.130Z,9.80
2023-04-17T01:10:46.037Z,9.70
2023-04-17T01:13:13.533Z,9.70
2023-04-17T01:15:42.931Z,9.70
2023-04-17T01:18:10.422Z,9.70
2023-04-17T01:20:37.566Z,9.70
2023-04-17T01:23:04.312Z,9.80
2023-04-17T01:25:32.386Z,9.80
2023-04-17T01:27:59.744Z,9.70
2023-04-17T01:30:29.264Z,9.70
2023-04-17T01:33:01.755Z,9.70
2023-04-17T01:35:29.706Z,9.80
2023-04-17T01:37:56.930Z,9.80
2023-04-17T01:40:23.790Z,9.80
2023-04-17T01:42:51.655Z,9.70
2023-04-17T01:45:18.973Z,9.70
2023-04-17T01:47:46.453Z,9.80
2023-04-17T01:50:14.840Z,9.70
2023-04-17T01:52:42.566Z,9.70
2023-04-17T01:55:11.661Z,9.70
2023-04-17T01:57:38.813Z,9.60
2023-04-17T02:00:08.189Z,9.60
2023-04-17T02:02:39.664Z,9.60
2023-04-17T02:05:08.272Z,9.60
2023-04-17T02:07:37.158Z,9.60
2023-04-17T02:10:04.577Z,9.50
2023-04-17T02:12:31.416Z,9.60
2023-04-17T02:15:01.389Z,9.60
2023-04-17T02:17:28.282Z,9.60
2023-04-17T02:19:55.598Z,9.50
2023-04-17T02:22:22.423Z,9.40
2023-04-17T02:24:49.759Z,9.50
2023-04-17T02:27:17.501Z,9.50
2023-04-17T02:29:44.564Z,9.50
2023-04-17T02:32:11.628Z,9.50
2023-04-17T02:34:38.626Z,9.50
2023-04-17T02:37:05.978Z,9.60
2023-04-17T02:39:35.568Z,9.50
2023-04-17T02:42:03.121Z,9.60
2023-04-17T02:44:30.673Z,9.50
2023-04-17T02:46:58.312Z,9.50
2023-04-17T02:49:27.510Z,9.50
2023-04-17T02:51:54.327Z,9.40
2023-04-17T02:54:21.567Z,9.50
2023-04-17T02:56:48.380Z,9.50
2023-04-17T02:59:15.637Z,9.40
2023-04-17T03:01:43.145Z,9.50
2023-04-17T03:04:10.526Z,9.50
2023-04-17T03:06:37.376Z,9.50
2023-04-17T03:09:05.000Z,9.50
2023-04-17T03:11:32.238Z,9.50
2023-04-17T03:13:59.325Z,9.50
2023-04-17T03:16:26.356Z,9.50
2023-04-17T03:18:56.091Z,9.50
2023-04-17T03:21:23.972Z,9.50
2023-04-17T03:23:51.018Z,9.50
2023-04-17T03:26:21.591Z,9.50
2023-04-17T03:28:49.473Z,9.50
2023-04-17T03:31:16.709Z,9.50
2023-04-17T03:33:43.997Z,9.50
2023-04-17T03:36:11.576Z,9.50
2023-04-17T03:38:39.243Z,9.50
2023-04-17T03:41:09.204Z,9.50
2023-04-17T03:43:36.556Z,9.50
2023-04-17T03:46:03.629Z,9.50
2023-04-17T03:48:31.820Z,9.50
2023-04-17T03:50:58.795Z,9.50
2023-04-17T03:53:26.467Z,9.50
2023-04-17T03:55:54.894Z,9.50
2023-04-17T03:58:29.705Z,9.50
2023-04-17T04:00:58.543Z,9.50
2023-04-17T04:03:30.227Z,9.50
2023-04-17T04:05:58.802Z,9.50
2023-04-17T04:08:26.472Z,9.50
2023-04-17T04:10:54.450Z,9.50
2023-04-17T04:13:28.377Z,9.50
2023-04-17T04:15:58.853Z,9.50
2023-04-17T04:18:28.380Z,9.50
2023-04-17T04:20:55.651Z,9.40
2023-04-17T04:23:31.074Z,9.40
2023-04-17T04:25:58.331Z,9.40
2023-04-17T04:28:39.023Z,9.50
2023-04-17T04:31:10.059Z,9.50
2023-04-17T04:33:40.716Z,9.40
2023-04-17T04:36:07.906Z,9.40
2023-04-17T04:38:35.740Z,9.40
2023-04-17T04:41:14.901Z,9.40
2023-04-17T04:43:42.600Z,9.30
2023-04-17T04:46:11.277Z,9.40
2023-04-17T04:48:43.055Z,9.40
2023-04-17T04:51:10.375Z,9.50
2023-04-17T04:53:41.070Z,9.50
2023-04-17T04:56:08.275Z,9.50
2023-04-17T04:58:36.387Z,9.60
2023-04-17T05:01:04.499Z,9.70
2023-04-17T05:03:44.993Z,9.80
2023-04-17T05:06:15.623Z,9.70
2023-04-17T05:08:49.777Z,9.70
2023-04-17T05:11:16.874Z,9.70
2023-04-17T05:13:43.628Z,9.60
2023-04-17T05:16:19.181Z,9.60
2023-04-17T05:18:48.400Z,9.70
2023-04-17T05:21:19.529Z,9.60
2023-04-17T05:23:50.208Z,9.60
2023-04-17T05:26:16.993Z,9.70
2023-04-17T05:28:45.073Z,9.70
2023-04-17T05:31:15.763Z,9.70
2023-04-17T05:33:43.240Z,9.70
2023-04-17T05:36:10.690Z,9.70
2023-04-17T05:38:40.433Z,9.70
2023-04-17T05:41:09.662Z,9.80
2023-04-17T05:43:37.675Z,9.80
2023-04-17T05:46:05.182Z,9.80
2023-04-17T05:48:32.393Z,9.90
2023-04-17T05:50:59.463Z,9.90
2023-04-17T05:53:26.494Z,9.90
2023-04-17T05:55:57.245Z,9.90
2023-04-17T05:58:25.417Z,9.90
2023-04-17T06:00:58.638Z,9.90
2023-04-17T06:03:27.734Z,9.90
2023-04-17T06:06:07.527Z,9.90
2023-04-17T06:08:35.404Z,9.90
2023-04-17T06:11:02.356Z,9.90
2023-04-17T06:13:29.964Z,9.90
2023-04-17T06:15:57.322Z,9.90
2023-04-17T06:18:24.377Z,9.90
2023-04-17T06:20:51.658Z,10.00
2023-04-17T06:23:18.678Z,9.90
2023-04-17T06:25:46.266Z,10.00
2023-04-17T06:28:13.653Z,10.00
2023-04-17T06:30:40.980Z,10.10
2023-04-17T06:33:09.196Z,10.10
2023-04-17T06:35:37.740Z,10.10
2023-04-17T06:38:29.813Z,10.10
2023-04-17T06:40:56.709Z,10.10
2023-04-17T06:43:25.048Z,10.10
2023-04-17T06:45:53.830Z,10.20
2023-04-17T06:48:23.738Z,10.10
2023-04-17T06:50:50.789Z,10.00
2023-04-17T06:53:17.755Z,10.20
2023-04-17T06:55:45.329Z,10.20
2023-04-17T06:58:12.330Z,10.20
2023-04-17T07:00:39.342Z,10.30
2023-04-17T07:03:06.286Z,10.30
2023-04-17T07:05:33.420Z,10.30
2023-04-17T07:08:00.488Z,10.40
2023-04-17T07:10:27.192Z,10.40
2023-04-17T07:12:55.036Z,10.40
2023-04-17T07:15:21.882Z,10.50
2023-04-17T07:17:48.975Z,10.60
2023-04-17T07:20:16.111Z,10.60
2023-04-17T07:22:43.401Z,10.70
2023-04-17T07:25:10.444Z,10.70
2023-04-17T07:27:38.584Z,10.60
2023-04-17T07:30:08.272Z,10.50
2023-04-17T07:32:35.831Z,10.50
2023-04-17T07:35:03.346Z,10.50
2023-04-17T07:37:30.825Z,10.50
2023-04-17T07:39:57.996Z,10.40
2023-04-17T07:42:25.289Z,10.40
2023-04-17T07:44:52.389Z,10.40
2023-04-17T07:47:19.886Z,10.30
2023-04-17T07:49:49.347Z,10.40
2023-04-17T07:52:18.159Z,10.50
2023-04-17T07:54:45.604Z,10.60
2023-04-17T07:57:12.929Z,10.70
2023-04-17T07:59:39.754Z,10.80
2023-04-17T08:02:07.295Z,10.80
2023-04-17T08:04:34.879Z,10.90
2023-04-17T08:07:02.827Z,10.90
2023-04-17T08:09:30.217Z,11.00
2023-04-17T08:11:58.324Z,10.80
2023-04-17T08:14:25.884Z,10.90
2023-04-17T08:16:52.816Z,10.80
2023-04-17T08:19:20.009Z,10.80
2023-04-17T08:21:48.096Z,10.80
2023-04-17T08:24:15.465Z,10.80
2023-04-17T08:26:43.977Z,10.80
2023-04-17T08:29:11.315Z,10.80
2023-04-17T08:31:40.062Z,10.80
2023-04-17T08:34:14.231Z,10.80
2023-04-17T08:36:42.616Z,10.90
2023-04-17T08:39:11.515Z,11.00
2023-04-17T08:41:45.249Z,11.00
2023-04-17T08:44:12.077Z,11.10
2023-04-17T08:46:39.061Z,11.10
2023-04-17T08:49:05.872Z,11.20
2023-04-17T08:51:33.187Z,11.20
2023-04-17T08:54:00.181Z,11.20
2023-04-17T08:56:28.900Z,11.30
2023-04-17T08:58:56.055Z,11.30
2023-04-17T09:01:23.229Z,11.40
2023-04-17T09:03:52.084Z,11.40
2023-04-17T09:06:18.998Z,11.30
2023-04-17T09:08:59.745Z,11.30
2023-04-17T09:11:26.858Z,11.20
2023-04-17T09:13:54.283Z,11.20
2023-04-17T09:16:21.179Z,11.10
2023-04-17T09:18:48.726Z,11.10
2023-04-17T09:21:18.769Z,11.10
2023-04-17T09:23:56.320Z,11.10
2023-04-17T09:26:27.178Z,11.00
2023-04-17T09:29:12.524Z,11.00
2023-04-17T09:31:40.771Z,11.10
2023-04-17T09:34:08.182Z,11.10
2023-04-17T09:36:39.515Z,11.10
2023-04-17T09:39:21.301Z,11.20
2023-04-17T09:41:48.311Z,11.20
2023-04-17T09:44:28.245Z,11.20
2023-04-17T09:46:55.541Z,11.20
2023-04-17T09:49:40.010Z,11.10
2023-04-17T09:52:07.263Z,11.20
2023-04-17T09:54:38.503Z,11.30
2023-04-17T09:57:09.182Z,11.30
2023-04-17T09:59:45.529Z,11.50
2023-04-17T10:02:21.874Z,11.60
2023-04-17T10:04:48.827Z,11.60
2023-04-17T10:07:17.380Z,11.70
2023-04-17T10:09:47.129Z,11.80
2023-04-17T10:12:15.895Z,11.80
2023-04-17T10:14:46.848Z,11.90
2023-04-17T10:17:28.525Z,12.10
2023-04-17T10:19:56.203Z,12.30
2023-04-17T10:22:24.509Z,12.70
2023-04-17T10:24:52.463Z,12.90
2023-04-17T10:27:28.292Z,12.80
2023-04-17T10:29:56.425Z,12.70
2023-04-17T10:32:28.309Z,13.20
2023-04-17T10:34:57.188Z,13.60
2023-04-17T10:37:46.974Z,14.10
2023-04-17T10:40:24.362Z,13.90
2023-04-17T10:43:07.049Z,13.80
2023-04-17T10:45:59.749Z,14.10
2023-04-17T10:48:38.223Z,14.30
2023-04-17T10:51:23.706Z,14.40
2023-04-17T10:53:51.496Z,14.70
2023-04-17T10:56:39.984Z,14.30
2023-04-17T10:59:06.742Z,14.40
2023-04-17T11:01:55.857Z,14.80
2023-04-17T11:04:28.533Z,14.40
2023-04-17T11:06:56.000Z,14.10
2023-04-17T11:09:24.104Z,13.70
2023-04-17T11:11:51.192Z,13.50
2023-04-17T11:14:19.625Z,13.60
2023-04-17T11:16:47.799Z,13.80
2023-04-17T11:19:24.290Z,13.90
2023-04-17T11:21:53.286Z,14.10
2023-04-17T11:24:24.510Z,14.30
2023-04-17T11:26:51.749Z,14.90
2023-04-17T11:29:22.403Z,15.10
2023-04-17T11:31:52.393Z,15.40
2023-04-17T11:34:19.721Z,15.10
2023-04-17T11:37:00.215Z,14.70
2023-04-17T11:39:31.346Z,14.50
2023-04-17T11:41:58.522Z,14.90
2023-04-17T11:44:25.397Z,14.80
2023-04-17T11:46:53.264Z,15.30
2023-04-17T11:49:32.604Z,15.70
2023-04-17T11:52:01.237Z,15.70
2023-04-17T11:54:32.314Z,16.00
2023-04-17T11:57:03.032Z,16.70
2023-04-17T11:59:34.829Z,16.50
2023-04-17T12:02:02.448Z,15.90
2023-04-17T12:04:30.324Z,15.80
2023-04-17T12:06:59.627Z,15.30
2023-04-17T12:09:31.542Z,15.00
2023-04-17T12:11:59.302Z,14.70
2023-04-17T12:14:26.660Z,14.40
2023-04-17T12:16:53.969Z,13.90
2023-04-17T12:19:21.200Z,13.70
2023-04-17T12:21:48.247Z,13.20
2023-04-17T12:24:15.601Z,13.30
2023-04-17T12:26:49.243Z,13.20
2023-04-17T12:29:17.152Z,13.20
2023-04-17T12:31:44.786Z,13.10
2023-04-17T12:34:12.077Z,13.30
2023-04-17T12:36:39.093Z,13.20
2023-04-17T12:39:06.123Z,13.30
2023-04-17T12:41:33.243Z,13.30
2023-04-17T12:44:01.915Z,13.30
2023-04-17T12:46:29.163Z,13.30
2023-04-17T12:48:58.660Z,13.20
2023-04-17T12:51:28.136Z,13.30
2023-04-17T12:53:58.101Z,13.30
2023-04-17T12:56:25.310Z,13.20
2023-04-17T12:58:51.994Z,13.20
2023-04-17T13:01:19.090Z,13.10
2023-04-17T13:03:46.473Z,13.10
2023-04-17T13:06:13.685Z,13.20
2023-04-17T13:08:40.427Z,13.40
2023-04-17T13:11:07.855Z,13.50
2023-04-17T13:13:34.618Z,13.60
2023-04-17T13:16:01.795Z,13.60
2023-04-17T13:18:28.918Z,13.60
2023-04-17T13:20:56.798Z,13.40
2023-04-17T13:23:24.111Z,13.50
2023-04-17T13:25:50.848Z,13.60
2023-04-17T13:28:18.182Z,13.40
2023-04-17T13:30:45.005Z,13.50
2023-04-17T13:33:12.103Z,13.50
2023-04-17T13:35:40.797Z,13.50
2023-04-17T13:38:07.582Z,13.50
2023-04-17T13:40:34.462Z,13.10
2023-04-17T13:43:01.520Z,13.20
2023-04-17T13:45:28.692Z,13.30
2023-04-17T13:47:55.514Z,13.50
2023-04-17T13:50:22.590Z,13.40
2023-04-17T13:52:49.765Z,13.50
2023-04-17T13:55:17.598Z,13.70
2023-04-17T13:57:44.651Z,13.60
2023-04-17T14:00:13.741Z,13.50
2023-04-17T14:02:40.980Z,13.20
2023-04-17T14:05:09.439Z,13.20
2023-04-17T14:07:37.840Z,12.90
2023-04-17T14:10:07.424Z,12.60
2023-04-17T14:12:34.729Z,12.60
2023-04-17T14:15:02.098Z,12.60
2023-04-17T14:17:29.258Z,12.60
2023-04-17T14:19:56.414Z,12.50
2023-04-17T14:22:23.850Z,12.40
2023-04-17T14:24:51.168Z,12.40
2023-04-17T14:27:18.354Z,12.40
2023-04-17T14:29:46.108Z,12.50
2023-04-17T14:32:13.149Z,12.50
2023-04-17T14:34:40.986Z,12.50
2023-04-17T14:37:08.418Z,12.50
2023-04-17T14:39:35.419Z,12.50
2023-04-17T14:42:02.442Z,12.50
2023-04-17T14:44:29.983Z,12.60
2023-04-17T14:46:57.469Z,12.60
2023-04-17T14:49:24.249Z,12.50
2023-04-17T14:51:51.094Z,12.60
2023-04-17T14:54:20.247Z,12.60
2023-04-17T14:56:47.710Z,12.60
2023-04-17T14:59:15.294Z,12.60
2023-04-17T15:01:42.762Z,12.80
2023-04-17T15:04:10.637Z,12.80
2023-04-17T15:06:39.306Z,12.90
2023-04-17T15:09:06.835Z,12.90
2023-04-17T15:11:34.255Z,13.00
2023-04-17T15:14:01.026Z,12.80
2023-04-17T15:16:27.837Z,12.90
2023-04-17T15:18:54.812Z,12.90
2023-04-17T15:21:21.988Z,13.00
2023-04-17T15:23:50.105Z,13.10
2023-04-17T15:26:17.668Z,13.10
2023-04-17T15:28:44.553Z,13.10
2023-04-17T15:31:12.021Z,13.00
2023-04-17T15:33:38.884Z,12.90
2023-04-17T15:36:06.579Z,12.90
2023-04-17T15:38:33.975Z,12.90
2023-04-17T15:41:01.809Z,12.90
2023-04-17T15:43:28.856Z,12.80
2023-04-17T15:45:56.342Z,12.90
2023-04-17T15:48:23.449Z,12.90
2023-04-17T15:50:50.478Z,12.90
2023-04-17T15:53:17.913Z,12.90
2023-04-17T15:55:45.067Z,12.70
2023-04-17T15:58:12.202Z,12.80
2023-04-17T16:00:39.427Z,12.90
2023-04-17T16:03:07.938Z,12.90
2023-04-17T16:05:35.189Z,12.90
2023-04-17T16:08:02.591Z,12.80
2023-04-17T16:10:30.349Z,12.80
2023-04-17T16:12:57.891Z,12.70
2023-04-17T16:15:25.632Z,12.70
2023-04-17T16:17:52.682Z,12.70
2023-04-17T16:20:20.076Z,12.60
2023-04-17T16:22:46.792Z,12.60
2023-04-17T16:25:14.665Z,12.60
2023-04-17T16:27:42.163Z,12.70
2023-04-17T16:30:10.918Z,12.70
2023-04-17T16:32:37.777Z,12.70
2023-04-17T16:35:06.468Z,12.80
2023-04-17T16:40:30.436Z,12.80
2023-04-17T16:42:57.490Z,12.80
2023-04-17T16:45:24.210Z,12.70
2023-04-17T16:47:52.396Z,12.70
2023-04-17T16:50:20.286Z,12.70
2023-04-17T16:52:50.163Z,12.80
2023-04-17T16:55:16.999Z,12.70
2023-04-17T16:57:45.791Z,12.70
2023-04-17T17:00:13.350Z,12.70
2023-04-17T17:02:40.444Z,12.70
2023-04-17T17:05:09.358Z,12.70
2023-04-17T17:07:36.486Z,12.70
2023-04-17T17:10:03.669Z,12.70
2023-04-17T17:12:31.256Z,12.70
2023-04-17T17:14:59.358Z,12.70
2023-04-17T17:17:26.738Z,12.60
2023-04-17T17:19:54.046Z,12.50
2023-04-17T17:22:21.078Z,12.50
2023-04-17T17:24:48.177Z,12.50
2023-04-17T17:27:15.849Z,12.50
2023-04-17T17:29:43.173Z,12.40
2023-04-17T17:32:11.758Z,12.40
2023-04-17T17:34:38.773Z,12.40
2023-04-17T17:37:06.128Z,12.40
2023-04-17T17:39:33.601Z,12.40
2023-04-17T17:42:03.102Z,12.30
2023-04-17T17:44:29.997Z,12.20
2023-04-17T17:46:57.500Z,12.20
2023-04-17T17:49:24.319Z,12.20
2023-04-17T17:51:50.952Z,12.20
2023-04-17T17:54:18.451Z,12.20
2023-04-17T17:56:45.549Z,12.20
2023-04-17T17:59:13.339Z,12.20
2023-04-17T18:01:41.270Z,12.20
2023-04-17T18:04:09.157Z,12.10
2023-04-17T18:06:38.079Z,12.10
2023-04-17T18:09:04.814Z,12.10
2023-04-17T18:11:31.538Z,12.10
2023-04-17T18:14:00.639Z,12.10
2023-04-17T18:16:31.693Z,12.10
2023-04-17T18:19:04.875Z,12.00
2023-04-17T18:21:32.241Z,12.10
2023-04-17T18:23:59.122Z,12.10
2023-04-17T18:26:26.107Z,12.10
2023-04-17T18:28:53.544Z,12.00
2023-04-17T18:31:22.943Z,12.00
2023-04-17T18:33:49.858Z,11.90
2023-04-17T18:36:19.464Z,11.90
2023-04-17T18:38:46.613Z,11.90
2023-04-17T18:41:13.785Z,11.90
2023-04-17T18:43:40.871Z,11.90
2023-04-17T18:46:08.053Z,11.80
2023-04-17T18:48:35.680Z,11.80
2023-04-17T18:51:10.673Z,11.90
2023-04-17T18:53:38.218Z,11.80
2023-04-17T18:56:05.208Z,11.80
2023-04-17T18:58:32.624Z,11.80
2023-04-17T19:00:59.474Z,11.80
2023-04-17T19:03:26.674Z,11.80
2023-04-17T19:05:53.506Z,11.80
2023-04-17T19:08:20.384Z,11.80
2023-04-17T19:10:47.547Z,11.80
2023-04-17T19:13:14.417Z,11.80
2023-04-17T19:15:41.532Z,11.70
2023-04-17T19:18:09.224Z,11.70
2023-04-17T19:20:36.749Z,11.70
2023-04-17T19:23:03.766Z,11.70
2023-04-17T19:25:30.738Z,11.70
2023-04-17T19:27:57.592Z,11.70
2023-04-17T19:30:24.582Z,11.70
2023-04-17T19:32:51.534Z,11.60
2023-04-17T19:35:18.562Z,11.60
2023-04-17T19:37:45.579Z,11.60
2023-04-17T19:40:24.487Z,11.50
2023-04-17T19:42:52.107Z,11.60
2023-04-17T19:45:20.958Z,11.60
2023-04-17T19:47:55.143Z,11.60
2023-04-17T19:50:22.965Z,11.50
2023-04-17T19:52:51.230Z,11.50
2023-04-17T19:55:18.333Z,11.50
2023-04-17T19:57:45.162Z,11.50
2023-04-17T20:00:12.391Z,11.50
2023-04-17T20:02:43.413Z,11.50
2023-04-17T20:05:11.753Z,11.50
2023-04-17T20:07:38.454Z,11.50
2023-04-17T20:10:07.525Z,11.40
2023-04-17T20:12:34.385Z,11.40
2023-04-17T20:15:01.134Z,11.40
2023-04-17T20:17:28.554Z,11.40
2023-04-17T20:19:55.388Z,11.40
2023-04-17T20:22:22.485Z,11.40
2023-04-17T20:24:50.733Z,11.30
2023-04-17T20:27:18.187Z,11.30
2023-04-17T20:29:45.341Z,11.30
2023-04-17T20:32:12.302Z,11.30
2023-04-17T20:34:39.927Z,11.30
2023-04-17T20:37:06.630Z,11.20
2023-04-17T20:39:33.340Z,11.20
2023-04-17T20:42:00.142Z,11.20
2023-04-17T20:44:26.931Z,11.10
2023-04-17T20:46:53.635Z,11.20
2023-04-17T20:49:20.572Z,11.20
2023-04-17T20:51:47.634Z,11.20
2023-04-17T20:54:14.633Z,11.10
2023-04-17T20:56:43.240Z,11.20
2023-04-17T20:59:10.766Z,11.10
2023-04-17T21:01:37.740Z,11.10
2023-04-17T21:04:04.819Z,11.10
2023-04-17T21:06:31.792Z,11.10
2023-04-17T21:08:58.896Z,11.10
2023-04-17T21:11:27.307Z,11.10
2023-04-17T21:13:54.041Z,11.00
2023-04-17T21:16:21.364Z,11.00
2023-04-17T21:18:48.367Z,11.00
2023-04-17T21:21:15.251Z,10.90
2023-04-17T21:23:42.577Z,10.90
2023-04-17T21:26:09.536Z,11.00
2023-04-17T21:28:37.983Z,11.00
2023-04-17T21:31:08.655Z,11.00
2023-04-17T21:33:36.608Z,11.00
2023-04-17T21:36:03.470Z,10.90
2023-04-17T21:38:30.766Z,10.90
2023-04-17T21:40:58.820Z,10.90
2023-04-17T21:43:25.523Z,10.90
2023-04-17T21:45:52.301Z,10.90
2023-04-17T21:48:19.274Z,11.00
2023-04-17T21:50:46.711Z,11.00
2023-04-17T21:53:13.973Z,11.00
2023-04-17T21:55:40.986Z,11.00
2023-04-17T21:58:08.077Z,10.90
2023-04-17T22:00:35.132Z,10.90
2023-04-17T22:03:02.611Z,10.90
2023-04-17T22:05:29.789Z,10.90
2023-04-17T22:07:56.571Z,10.80
2023-04-17T22:10:24.308Z,10.90
2023-04-17T22:12:51.021Z,10.90
2023-04-17T22:15:18.182Z,10.90
2023-04-17T22:17:45.843Z,10.90
2023-04-17T22:20:13.956Z,10.90
2023-04-17T22:22:40.913Z,10.90
2023-04-17T22:25:08.271Z,10.90
2023-04-17T22:27:35.054Z,10.90
2023-04-17T22:30:02.142Z,10.90
2023-04-17T22:32:28.887Z,10.90
2023-04-17T22:34:56.213Z,10.80
2023-04-17T22:37:23.136Z,10.80
2023-04-17T22:39:50.098Z,10.90
2023-04-17T22:42:20.725Z,10.80
2023-04-17T22:44:48.927Z,10.80
2023-04-17T22:47:16.111Z,10.70
2023-04-17T22:49:43.125Z,10.80
2023-04-17T22:52:10.450Z,10.70
2023-04-17T22:54:37.515Z,10.80
2023-04-17T22:57:04.562Z,10.70
2023-04-17T22:59:32.696Z,10.70
2023-04-17T23:01:59.508Z,10.70
2023-04-17T23:04:26.412Z,10.80
2023-04-17T23:06:53.370Z,10.70
2023-04-17T23:09:20.340Z,10.70
2023-04-17T23:11:47.278Z,10.70
2023-04-17T23:14:14.342Z,10.80
2023-04-17T23:16:43.108Z,10.70
2023-04-17T23:19:10.433Z,10.60
2023-04-17T23:21:38.396Z,10.60
2023-04-17T23:24:05.356Z,10.60
2023-04-17T23:26:32.660Z,10.70
2023-04-17T23:28:59.963Z,10.60
2023-04-17T23:31:27.133Z,10.60
2023-04-17T23:33:53.854Z,10.60
2023-04-17T23:36:20.690Z,10.50
2023-04-17T23:38:47.463Z,10.40
2023-04-17T23:41:14.236Z,10.50
2023-04-17T23:43:41.148Z,10.40
2023-04-17T23:46:09.493Z,10.30
2023-04-17T23:48:36.266Z,10.40
2023-04-17T23:51:03.463Z,10.40
2023-04-17T23:53:30.324Z,10.40
2023-04-17T23:55:57.374Z,10.30
2023-04-17T23:58:24.950Z,10.30
